CDT,Max TemperatureF,Mean TemperatureF,Min TemperatureF,Max Dew PointF,MeanDew PointF,Min DewpointF,Max Humidity, Mean Humidity, Min Humidity, Max Sea Level PressureIn, Mean Sea Level PressureIn, Min Sea Level PressureIn, Max VisibilityMiles, Mean VisibilityMiles, Min VisibilityMiles, Max Wind SpeedMPH, Mean Wind SpeedMPH, Max Gust SpeedMPH,PrecipitationIn, CloudCover, Events, WindDirDegrees
2013-7-1,78,67,55,56,53,50,86,63,39,30.13,30.10,30.06,10,10,10,21,8,26,0.00,0,,33
2013-7-2,78,67,55,57,55,48,93,70,47,30.12,30.09,30.06,10,10,10,13,5,16,0.00,1,,51
2013-7-3,75,63,50,57,53,49,96,73,49,30.10,30.07,30.03,10,10,10,10,3,14,0.00,2,,79
2013-7-4,82,69,55,63,58,53,100,73,45,30.09,30.04,30.00,10,10,10,12,5,17,0.00,1,,185
2013-7-5,83,72,61,64,62,58,100,76,51,30.05,30.02,29.98,10,9,5,17,9,24,0.00,0,,187
2013-7-6,85,74,62,68,64,61,100,74,48,30.03,29.99,29.94,10,9,4,15,8,18,0.00,0,,180
2013-7-7,87,77,66,72,69,65,100,79,57,29.97,29.94,29.90,10,8,4,15,9,20,0.00,1,,194
2013-7-8,88,79,69,77,72,69,100,82,63,30.00,29.95,29.93,10,7,1,21,8,26,0.83,4,Rain-Thunderstorm,221
2013-7-9,84,77,70,76,73,70,100,87,74,30.03,29.93,29.86,10,7,1,28,8,44,0.30,3,Rain-Thunderstorm,217
2013-7-10,79,69,59,75,64,57,100,74,48,30.04,29.96,29.88,10,10,7,17,8,34,0.00,1,,336
2013-7-11,80,69,57,64,59,56,93,71,48,30.14,30.10,30.06,10,9,7,9,3,16,0.00,1,,94
2013-7-12,80,68,56,62,58,54,93,69,45,30.16,30.11,30.07,10,10,7,15,6,22,0.00,0,,169
2013-7-13,80,70,59,63,60,56,93,75,56,30.15,30.12,30.08,10,10,9,12,6,16,0.00,0,,166
2013-7-14,84,73,62,70,65,60,93,74,55,30.21,30.17,30.14,10,10,9,14,7,21,0.00,1,,133
2013-7-15,87,79,71,74,71,68,94,76,57,30.27,30.23,30.20,10,9,6,10,6,13,0.00,1,,139
2013-7-16,89,80,71,75,73,71,100,80,59,30.31,30.26,30.24,10,8,2,13,6,16,0.00,1,,205
2013-7-17,91,82,72,75,73,69,100,75,49,30.31,30.26,30.19,10,9,6,18,4,,0.00,0,,234
2013-7-18,91,81,71,74,72,70,100,78,56,30.19,30.07,29.93,10,10,6,16,8,22,0.00,0,,220
2013-7-19,88,79,69,74,70,65,93,78,63,29.92,29.85,29.79,10,10,10,20,11,24,0.01,1,,252
2013-7-20,85,72,59,70,64,58,100,74,48,29.95,29.92,29.87,10,9,2,30,4,39,0.68,3,Rain-Thunderstorm,324
2013-7-21,81,73,64,71,66,63,100,84,67,29.96,29.92,29.85,10,8,0,17,7,23,0.01,4,Fog-Rain,102
2013-7-22,85,73,61,75,66,58,100,81,61,29.92,29.80,29.72,10,9,2,29,7,39,0.05,2,Rain-Thunderstorm,212
2013-7-23,76,68,59,63,58,54,93,72,50,30.01,29.88,29.77,10,10,10,18,10,24,0.00,0,,356
2013-7-24,75,65,54,60,55,52,93,71,49,30.10,30.06,30.01,10,10,10,9,2,13,0.00,3,,78
2013-7-25,80,68,55,65,60,55,100,77,54,30.09,30.05,30.01,10,10,4,28,9,31,0.46,3,Rain,202
2013-7-26,77,67,57,68,62,54,100,75,49,30.00,29.95,29.90,10,10,4,22,12,29,0.05,5,Rain,257
2013-7-27,63,57,51,55,49,45,100,79,57,30.01,29.98,29.95,10,10,8,18,10,23,0.00,6,,318
2013-7-28,68,59,50,53,50,48,93,75,56,30.08,29.99,29.92,10,10,10,15,7,25,T,5,,305
2013-7-29,74,60,46,59,53,46,100,75,49,30.17,30.13,30.08,10,10,10,9,2,,0.00,1,,192
2013-7-30,69,64,58,64,61,54,100,89,78,30.15,30.11,30.07,10,7,0,15,6,20,0.03,7,Fog-Rain,116
2013-7-31,79,70,61,66,63,59,100,80,60,30.09,30.06,29.99,10,6,0,14,6,17,T,5,Fog,351